createdAt,value
2019-04-03T00:01:12.092Z,14.20
2019-04-03T00:03:44.991Z,14.40
2019-04-03T00:06:17.489Z,14.70
2019-04-03T00:08:49.372Z,14.80
2019-04-03T00:11:20.043Z,14.70
2019-04-03T00:13:49.707Z,14.90
2019-04-03T00:16:19.579Z,14.70
2019-04-03T00:18:49.330Z,14.70
2019-04-03T00:21:19.618Z,14.20
2019-04-03T00:23:52.181Z,14.10
2019-04-03T00:26:22.569Z,13.00
2019-04-03T00:28:52.699Z,13.30
2019-04-03T00:31:23.827Z,13.00
2019-04-03T00:33:53.893Z,13.80
2019-04-03T00:36:23.916Z,14.00
2019-04-03T00:38:54.259Z,13.80
2019-04-03T00:41:25.107Z,14.40
2019-04-03T00:43:55.834Z,11.20
2019-04-03T00:46:28.882Z,10.60
2019-04-03T00:49:00.346Z,10.60
2019-04-03T00:51:30.019Z,10.50
2019-04-03T00:53:59.955Z,10.00
2019-04-03T00:56:29.602Z,9.90
2019-04-03T00:58:59.547Z,9.70
2019-04-03T01:01:29.398Z,10.10
2019-04-03T01:03:59.370Z,11.10
2019-04-03T01:06:29.439Z,11.70
2019-04-03T01:08:59.849Z,12.10
2019-04-03T01:11:30.664Z,12.80
2019-04-03T01:14:01.552Z,13.80
2019-04-03T01:16:33.303Z,13.80
2019-04-03T01:19:05.212Z,13.60
2019-04-03T01:21:36.266Z,12.50
2019-04-03T01:24:08.332Z,13.30
2019-04-03T01:26:40.187Z,13.50
2019-04-03T01:29:10.609Z,13.30
2019-04-03T01:31:44.721Z,14.10
2019-04-03T01:34:17.217Z,14.00
2019-04-03T01:36:48.679Z,13.90
2019-04-03T01:39:18.990Z,14.40
2019-04-03T01:41:51.474Z,13.90
2019-04-03T01:44:24.095Z,14.00
2019-04-03T01:46:53.414Z,14.10
2019-04-03T01:49:23.218Z,14.30
2019-04-03T01:51:53.066Z,14.40
2019-04-03T01:54:22.830Z,14.10
2019-04-03T01:56:52.713Z,14.40
2019-04-03T01:59:22.625Z,14.40
2019-04-03T02:04:22.243Z,14.70
2019-04-03T02:06:52.713Z,14.50
2019-04-03T02:09:22.991Z,14.20
2019-04-03T02:11:53.155Z,13.80
2019-04-03T02:14:23.243Z,13.70
2019-04-03T02:16:54.054Z,13.60
2019-04-03T02:19:25.854Z,13.90
2019-04-03T02:21:58.156Z,14.00
2019-04-03T02:24:28.053Z,14.30
2019-04-03T02:26:57.743Z,14.50
2019-04-03T02:29:27.618Z,14.40
2019-04-03T02:31:57.626Z,14.30
2019-04-03T02:34:28.167Z,14.10
2019-04-03T02:36:57.803Z,13.60
2019-04-03T02:39:28.201Z,13.40
2019-04-03T02:41:57.896Z,13.20
2019-04-03T02:44:28.411Z,13.70
2019-04-03T02:47:00.992Z,14.10
2019-04-03T02:49:30.228Z,14.30
2019-04-03T02:52:00.087Z,14.40
2019-04-03T02:54:34.759Z,14.60
2019-04-03T02:57:02.680Z,14.60
2019-04-03T02:59:32.628Z,14.70
2019-04-03T03:02:02.800Z,14.60
2019-04-03T03:04:32.807Z,14.60
2019-04-03T03:07:04.454Z,14.50
2019-04-03T03:09:35.162Z,14.40
2019-04-03T03:12:05.212Z,14.50
2019-04-03T03:14:39.284Z,14.50
2019-04-03T03:17:10.567Z,14.50
2019-04-03T03:19:41.168Z,14.50
2019-04-03T03:22:11.811Z,14.50
2019-04-03T03:24:42.114Z,14.60
2019-04-03T03:27:12.305Z,14.60
2019-04-03T03:29:43.054Z,14.50
2019-04-03T03:32:19.949Z,14.30
2019-04-03T03:34:54.918Z,14.40
2019-04-03T03:37:16.741Z,14.50
2019-04-03T03:39:47.065Z,14.30
2019-04-03T03:42:16.994Z,14.10
2019-04-03T03:44:47.086Z,14.20
2019-04-03T03:47:18.327Z,14.20
2019-04-03T03:49:50.075Z,14.50
2019-04-03T03:52:20.136Z,14.40
2019-04-03T03:54:51.834Z,14.20
2019-04-03T03:57:23.226Z,14.00
2019-04-03T03:59:53.208Z,14.20
2019-04-03T04:02:23.209Z,14.10
2019-04-03T04:04:53.021Z,13.90
2019-04-03T04:07:23.417Z,14.10
2019-04-03T04:09:54.148Z,14.10
2019-04-03T04:12:24.367Z,14.30
2019-04-03T04:14:57.145Z,14.40
2019-04-03T04:17:27.795Z,14.20
2019-04-03T04:20:03.144Z,14.10
2019-04-03T04:22:30.349Z,14.00
2019-04-03T04:25:01.148Z,13.80
2019-04-03T04:27:33.600Z,13.90
2019-04-03T04:30:03.105Z,14.30
2019-04-03T04:32:33.409Z,14.10
2019-04-03T04:35:03.385Z,14.40
2019-04-03T04:37:33.717Z,14.20
2019-04-03T04:40:05.270Z,14.20
2019-04-03T04:42:35.383Z,14.20
2019-04-03T04:45:07.952Z,13.70
2019-04-03T04:47:40.113Z,14.10
2019-04-03T04:50:12.246Z,14.20
2019-04-03T04:52:42.466Z,14.20
2019-04-03T04:55:12.783Z,14.10
2019-04-03T04:57:42.698Z,14.20
2019-04-03T05:00:15.671Z,14.30
2019-04-03T05:02:45.830Z,14.40
2019-04-03T05:05:16.122Z,14.50
2019-04-03T05:07:46.145Z,14.60
2019-04-03T05:10:18.139Z,14.60
2019-04-03T05:12:48.158Z,14.60
2019-04-03T05:15:21.662Z,14.30
2019-04-03T05:17:50.603Z,14.30
2019-04-03T05:20:20.627Z,14.50
2019-04-03T05:22:50.302Z,14.60
2019-04-03T05:25:20.447Z,14.60
2019-04-03T05:27:50.379Z,14.60
2019-04-03T05:30:31.282Z,14.60
2019-04-03T05:33:01.740Z,14.60
2019-04-03T05:35:31.599Z,14.60
2019-04-03T05:38:01.394Z,14.60
2019-04-03T05:40:31.071Z,14.60
2019-04-03T05:43:01.919Z,14.60
2019-04-03T05:45:34.496Z,14.50
2019-04-03T05:48:04.232Z,14.50
2019-04-03T05:50:36.133Z,14.50
2019-04-03T05:53:06.470Z,14.00
2019-04-03T05:55:36.771Z,14.20
2019-04-03T05:58:06.371Z,14.20
2019-04-03T06:00:38.195Z,14.40
2019-04-03T06:03:07.490Z,14.40
2019-04-03T06:05:37.339Z,14.40
2019-04-03T06:08:07.078Z,14.40
2019-04-03T06:10:37.619Z,14.40
2019-04-03T06:13:09.174Z,14.30
2019-04-03T06:15:39.070Z,14.20
2019-04-03T06:18:08.922Z,14.10
2019-04-03T06:20:42.581Z,13.90
2019-04-03T06:23:11.591Z,14.10
2019-04-03T06:25:41.527Z,14.20
2019-04-03T06:28:13.138Z,14.10
2019-04-03T06:30:42.677Z,14.00
2019-04-03T06:33:12.405Z,14.00
2019-04-03T06:35:45.369Z,13.70
2019-04-03T06:38:14.598Z,13.80
2019-04-03T06:40:44.623Z,13.90
2019-04-03T06:43:15.345Z,13.60
2019-04-03T06:45:46.229Z,12.80
2019-04-03T06:48:17.738Z,13.40
2019-04-03T06:50:48.210Z,13.50
2019-04-03T06:53:18.102Z,13.70
2019-04-03T06:55:47.945Z,13.90
2019-04-03T06:58:17.967Z,13.00
2019-04-03T07:00:47.791Z,12.60
2019-04-03T07:03:17.531Z,13.00
2019-04-03T07:05:47.428Z,13.50
2019-04-03T07:08:28.687Z,13.80
2019-04-03T07:10:55.190Z,13.90
2019-04-03T07:13:20.604Z,13.30
2019-04-03T07:15:51.040Z,13.50
2019-04-03T07:18:21.238Z,13.50
2019-04-03T07:20:52.197Z,13.20
2019-04-03T07:23:22.717Z,13.50
2019-04-03T07:25:52.481Z,13.80
2019-04-03T07:28:22.426Z,14.00
2019-04-03T07:30:53.583Z,14.00
2019-04-03T07:33:24.083Z,14.10
2019-04-03T07:35:53.733Z,14.20
2019-04-03T07:38:23.746Z,14.20
2019-04-03T07:40:53.379Z,14.30
2019-04-03T07:43:26.288Z,14.50
2019-04-03T07:45:54.598Z,14.30
2019-04-03T07:48:24.500Z,14.00
2019-04-03T07:50:54.174Z,14.10
2019-04-03T07:53:24.043Z,14.30
2019-04-03T07:55:55.334Z,14.00
2019-04-03T07:58:25.841Z,12.80
2019-04-03T08:00:56.157Z,12.20
2019-04-03T08:03:26.634Z,11.40
2019-04-03T08:05:56.845Z,11.60
2019-04-03T08:08:26.981Z,12.80
2019-04-03T08:10:56.686Z,13.70
2019-04-03T08:13:26.704Z,14.00
2019-04-03T08:15:57.064Z,14.30
2019-04-03T08:18:26.699Z,14.30
2019-04-03T08:20:57.614Z,14.00
2019-04-03T08:23:28.114Z,14.20
2019-04-03T08:25:57.875Z,14.00
2019-04-03T08:28:30.193Z,14.20
2019-04-03T08:30:59.090Z,14.40
2019-04-03T08:33:29.004Z,14.60
2019-04-03T08:35:59.299Z,14.40
2019-04-03T08:38:29.598Z,14.10
2019-04-03T08:40:59.436Z,13.80
2019-04-03T08:43:31.583Z,13.80
2019-04-03T08:46:00.619Z,13.80
2019-04-03T08:48:30.622Z,14.00
2019-04-03T08:51:02.523Z,14.20
2019-04-03T08:53:32.503Z,14.10
2019-04-03T08:56:02.492Z,14.20
2019-04-03T08:58:32.615Z,14.30
2019-04-03T09:01:04.828Z,14.10
2019-04-03T09:03:34.907Z,14.30
2019-04-03T09:06:04.830Z,14.40
2019-04-03T09:08:34.630Z,14.50
2019-04-03T09:11:05.465Z,14.50
2019-04-03T09:13:36.175Z,14.20
2019-04-03T09:16:06.149Z,14.00
2019-04-03T09:18:37.859Z,14.20
2019-04-03T09:21:07.303Z,14.50
2019-04-03T09:23:37.083Z,14.20
2019-04-03T09:26:06.826Z,14.20
2019-04-03T09:28:37.142Z,14.40
2019-04-03T09:31:07.063Z,14.60
2019-04-03T09:33:37.454Z,14.50
2019-04-03T09:36:07.291Z,14.40
2019-04-03T09:38:40.434Z,14.50
2019-04-03T09:41:09.160Z,14.70
2019-04-03T09:43:39.977Z,14.70
2019-04-03T09:46:10.044Z,14.70
2019-04-03T09:48:39.912Z,14.70
2019-04-03T09:51:09.916Z,14.60
2019-04-03T09:53:39.927Z,14.40
2019-04-03T09:56:10.042Z,14.40
2019-04-03T09:58:39.750Z,14.40
2019-04-03T10:01:09.645Z,14.50
2019-04-03T10:03:39.798Z,14.30
2019-04-03T10:06:09.669Z,13.90
2019-04-03T10:08:40.371Z,13.60
2019-04-03T10:11:11.041Z,13.50
2019-04-03T10:13:40.783Z,14.00
2019-04-03T10:16:10.774Z,14.00
2019-04-03T10:18:41.724Z,13.80
2019-04-03T10:21:13.228Z,13.80
2019-04-03T10:23:42.994Z,14.30
2019-04-03T10:26:13.182Z,14.30
2019-04-03T10:28:43.209Z,14.10
2019-04-03T10:31:13.773Z,14.00
2019-04-03T10:33:43.389Z,14.10
2019-04-03T10:36:13.417Z,14.20
2019-04-03T10:38:43.011Z,14.50
2019-04-03T10:41:12.924Z,14.50
2019-04-03T10:43:43.003Z,14.50
2019-04-03T10:46:13.100Z,14.60
2019-04-03T10:48:42.960Z,14.40
2019-04-03T10:51:13.019Z,14.60
2019-04-03T10:53:44.738Z,14.60
2019-04-03T10:56:14.582Z,14.90
2019-04-03T10:58:44.750Z,15.10
2019-04-03T11:01:14.818Z,15.40
2019-04-03T11:03:44.408Z,14.90
2019-04-03T11:06:14.908Z,15.00
2019-04-03T11:08:44.657Z,15.10
2019-04-03T11:11:14.761Z,15.30
2019-04-03T11:13:44.942Z,15.50
2019-04-03T11:16:15.717Z,14.90
2019-04-03T11:18:57.631Z,14.90
2019-04-03T11:21:17.477Z,14.60
2019-04-03T11:23:47.306Z,15.00
2019-04-03T11:26:18.338Z,14.90
2019-04-03T11:28:49.124Z,14.80
2019-04-03T11:31:25.462Z,14.10
2019-04-03T11:36:23.291Z,13.30
2019-04-03T11:38:53.459Z,12.60
2019-04-03T11:41:24.385Z,14.00
2019-04-03T11:43:54.287Z,14.40
2019-04-03T11:46:24.376Z,14.70
2019-04-03T11:48:54.305Z,14.30
2019-04-03T11:51:24.610Z,14.60
2019-04-03T11:53:54.430Z,13.60
2019-04-03T11:56:24.298Z,14.60
2019-04-03T11:58:54.281Z,14.50
2019-04-03T12:01:24.122Z,14.60
2019-04-03T12:03:53.954Z,14.40
2019-04-03T12:06:24.125Z,14.70
2019-04-03T12:08:54.507Z,14.20
2019-04-03T12:11:24.386Z,12.90
2019-04-03T12:13:54.193Z,12.70
2019-04-03T12:16:25.762Z,12.10
2019-04-03T12:18:55.600Z,11.70
2019-04-03T12:21:25.746Z,12.60
2019-04-03T12:23:58.161Z,12.50
2019-04-03T12:26:28.873Z,13.20
2019-04-03T12:28:59.411Z,13.70
2019-04-03T12:31:29.362Z,14.30
2019-04-03T12:34:04.540Z,14.60
2019-04-03T12:36:30.586Z,14.40
2019-04-03T12:39:00.909Z,14.10
2019-04-03T12:41:31.359Z,14.20
2019-04-03T12:44:01.323Z,12.90
2019-04-03T12:46:37.839Z,13.00
2019-04-03T12:49:09.589Z,12.40
2019-04-03T12:51:39.564Z,13.20
2019-04-03T12:54:12.296Z,13.70
2019-04-03T12:56:42.474Z,13.60
2019-04-03T12:59:12.185Z,13.80
2019-04-03T13:01:42.227Z,13.10
2019-04-03T13:04:12.216Z,13.10
2019-04-03T13:06:42.482Z,13.40
2019-04-03T13:09:12.859Z,14.00
2019-04-03T13:11:43.401Z,14.30
2019-04-03T13:14:23.833Z,13.20
2019-04-03T13:16:47.119Z,12.70
2019-04-03T13:19:16.808Z,12.90
2019-04-03T13:21:46.980Z,13.10
2019-04-03T13:24:17.620Z,13.70
2019-04-03T13:26:47.660Z,14.30
2019-04-03T13:29:20.397Z,14.10
2019-04-03T13:31:49.033Z,13.50
2019-04-03T13:34:19.836Z,13.60
2019-04-03T13:36:51.373Z,12.90
2019-04-03T13:39:23.182Z,12.90
2019-04-03T13:41:53.126Z,13.40
2019-04-03T13:44:25.971Z,14.00
2019-04-03T13:46:54.362Z,13.60
2019-04-03T13:49:24.687Z,13.70
2019-04-03T13:51:56.288Z,12.80
2019-04-03T13:54:27.296Z,13.10
2019-04-03T13:56:57.686Z,13.50
2019-04-03T13:59:27.559Z,14.30
2019-04-03T14:01:57.505Z,14.40
2019-04-03T14:04:27.066Z,14.40
2019-04-03T14:06:57.235Z,14.20
2019-04-03T14:09:27.241Z,14.30
2019-04-03T14:12:00.368Z,14.60
2019-04-03T14:14:29.015Z,14.80
2019-04-03T14:16:59.278Z,13.80
2019-04-03T14:19:41.793Z,13.90
2019-04-03T14:22:01.317Z,13.80
2019-04-03T14:24:40.103Z,14.30
2019-04-03T14:27:03.364Z,14.60
2019-04-03T14:29:33.197Z,14.80
2019-04-03T14:34:32.195Z,15.00
2019-04-03T14:37:01.874Z,15.10
2019-04-03T14:39:31.904Z,15.00
2019-04-03T14:42:01.903Z,13.80
2019-04-03T14:44:31.817Z,13.80
2019-04-03T14:47:01.637Z,13.10
2019-04-03T14:49:32.870Z,13.10
2019-04-03T14:52:05.258Z,13.40
2019-04-03T14:54:35.226Z,14.10
2019-04-03T14:57:13.327Z,13.90
2019-04-03T14:59:36.587Z,13.10
2019-04-03T15:02:07.171Z,13.50
2019-04-03T15:04:37.701Z,13.00
2019-04-03T15:07:09.538Z,12.50
2019-04-03T15:09:39.259Z,12.70
2019-04-03T15:12:11.778Z,12.50
2019-04-03T15:14:40.581Z,12.70
2019-04-03T15:17:10.363Z,12.90
2019-04-03T15:19:40.218Z,13.30
2019-04-03T15:22:09.962Z,13.20
2019-04-03T15:24:42.647Z,13.60
2019-04-03T15:27:11.050Z,13.70
2019-04-03T15:29:40.835Z,14.00
2019-04-03T15:32:11.126Z,13.30
2019-04-03T15:34:41.469Z,13.30
2019-04-03T15:37:13.903Z,13.00
2019-04-03T15:39:43.712Z,13.10
2019-04-03T15:42:14.141Z,13.00
2019-04-03T15:44:44.281Z,12.70
2019-04-03T15:47:18.787Z,12.70
2019-04-03T15:49:45.811Z,12.90
2019-04-03T15:52:15.986Z,13.10
2019-04-03T15:54:46.338Z,13.50
2019-04-03T15:57:18.762Z,14.10
2019-04-03T15:59:47.986Z,14.30
2019-04-03T16:02:18.039Z,14.20
2019-04-03T16:04:47.939Z,13.60
2019-04-03T16:07:19.544Z,13.90
2019-04-03T16:09:51.132Z,13.10
2019-04-03T16:12:21.534Z,12.30
2019-04-03T16:14:51.873Z,12.60
2019-04-03T16:17:21.675Z,12.90
2019-04-03T16:19:52.441Z,12.80
2019-04-03T16:22:23.055Z,12.50
2019-04-03T16:24:53.846Z,12.00
2019-04-03T16:27:27.659Z,12.80
2019-04-03T16:29:56.295Z,13.20
2019-04-03T16:32:27.552Z,13.60
2019-04-03T16:34:58.105Z,14.20
2019-04-03T16:37:28.031Z,14.60
2019-04-03T16:39:59.738Z,14.60
2019-04-03T16:42:29.519Z,14.10
2019-04-03T16:45:02.623Z,13.70
2019-04-03T16:47:30.686Z,13.90
2019-04-03T16:50:00.450Z,13.10
2019-04-03T16:52:30.308Z,13.10
2019-04-03T16:55:01.182Z,13.70
2019-04-03T16:57:31.496Z,14.10
2019-04-03T17:00:01.576Z,14.20
2019-04-03T17:02:31.881Z,14.10
2019-04-03T17:05:02.966Z,14.20
2019-04-03T17:07:32.759Z,13.80
2019-04-03T17:10:03.319Z,13.60
2019-04-03T17:12:33.381Z,14.10
2019-04-03T17:15:03.788Z,14.40
2019-04-03T17:17:33.813Z,13.80
2019-04-03T17:20:04.558Z,13.70
2019-04-03T17:22:34.413Z,14.20
2019-04-03T17:25:04.665Z,13.60
2019-04-03T17:27:34.890Z,13.80
2019-04-03T17:30:05.470Z,14.30
2019-04-03T17:32:35.447Z,14.40
2019-04-03T17:35:07.394Z,13.40
2019-04-03T17:37:37.155Z,13.80
2019-04-03T17:40:08.641Z,14.00
2019-04-03T17:42:39.284Z,14.20
2019-04-03T17:45:13.788Z,13.60
2019-04-03T17:47:43.693Z,12.80
2019-04-03T17:50:14.816Z,12.50
2019-04-03T17:52:45.107Z,12.60
2019-04-03T17:55:15.258Z,13.00
2019-04-03T17:57:45.520Z,13.60
2019-04-03T18:00:20.525Z,13.60
2019-04-03T18:02:49.820Z,14.10
2019-04-03T18:05:20.534Z,14.10
2019-04-03T18:07:50.485Z,13.90
2019-04-03T18:10:20.712Z,13.10
2019-04-03T18:12:52.377Z,12.20
2019-04-03T18:15:23.919Z,11.70
2019-04-03T18:17:53.930Z,12.10
2019-04-03T18:20:25.126Z,11.60
2019-04-03T18:22:55.193Z,12.10
2019-04-03T18:25:28.518Z,12.30
2019-04-03T18:27:57.175Z,11.60
2019-04-03T18:30:28.522Z,12.40
2019-04-03T18:33:01.199Z,12.80
2019-04-03T18:35:31.067Z,13.20
2019-04-03T18:38:01.066Z,13.30
2019-04-03T18:40:31.106Z,12.30
2019-04-03T18:43:01.525Z,12.00
2019-04-03T18:45:31.542Z,11.60
2019-04-03T18:48:01.543Z,12.30
2019-04-03T18:50:31.456Z,12.10
2019-04-03T18:53:02.563Z,12.50
2019-04-03T18:55:34.615Z,12.60
2019-04-03T18:58:04.266Z,13.30
2019-04-03T19:00:33.953Z,12.20
2019-04-03T19:03:04.089Z,12.10
2019-04-03T19:05:35.597Z,12.30
2019-04-03T19:08:13.077Z,12.80
2019-04-03T19:10:38.882Z,11.80
2019-04-03T19:13:08.658Z,10.90
2019-04-03T19:15:39.056Z,11.20
2019-04-03T19:18:19.248Z,10.90
2019-04-03T19:20:40.863Z,11.10
2019-04-03T19:23:12.825Z,10.70
2019-04-03T19:25:42.635Z,11.50
2019-04-03T19:28:12.553Z,11.60
2019-04-03T19:30:43.862Z,11.20
2019-04-03T19:33:14.473Z,11.60
2019-04-03T19:35:44.923Z,11.90
2019-04-03T19:38:15.079Z,11.20
2019-04-03T19:40:45.366Z,11.50
2019-04-03T19:43:16.353Z,11.10
2019-04-03T19:45:46.638Z,11.10
2019-04-03T19:48:16.349Z,10.80
2019-04-03T19:50:46.142Z,11.10
2019-04-03T19:53:15.836Z,11.80
2019-04-03T19:55:46.075Z,11.80
2019-04-03T19:58:16.126Z,11.80
2019-04-03T20:00:45.886Z,11.60
2019-04-03T20:03:15.522Z,11.50
2019-04-03T20:05:50.303Z,11.70
2019-04-03T20:08:18.851Z,11.50
2019-04-03T20:10:49.193Z,11.70
2019-04-03T20:13:19.492Z,11.90
2019-04-03T20:15:49.466Z,11.50
2019-04-03T20:18:19.442Z,11.60
2019-04-03T20:20:50.670Z,12.30
2019-04-03T20:23:20.766Z,12.30
2019-04-03T20:25:50.570Z,12.50
2019-04-03T20:28:23.324Z,13.20
2019-04-03T20:30:52.286Z,13.20
2019-04-03T20:33:22.249Z,13.00
2019-04-03T20:35:51.854Z,13.40
2019-04-03T20:38:21.966Z,13.20
2019-04-03T20:40:51.895Z,12.80
2019-04-03T20:43:21.854Z,13.10
2019-04-03T20:45:51.735Z,13.50
2019-04-03T20:48:21.586Z,13.50
2019-04-03T20:50:51.442Z,13.60
2019-04-03T20:53:21.302Z,13.20
2019-04-03T20:55:52.103Z,13.10
2019-04-03T20:58:22.635Z,13.40
2019-04-03T21:01:05.727Z,13.50
2019-04-03T21:03:24.006Z,13.40
2019-04-03T21:05:53.809Z,13.50
2019-04-03T21:08:26.341Z,13.50
2019-04-03T21:10:55.129Z,12.80
2019-04-03T21:13:24.766Z,13.40
2019-04-03T21:15:54.597Z,13.10
2019-04-03T21:18:24.439Z,12.30
2019-04-03T21:20:54.766Z,12.50
2019-04-03T21:23:25.287Z,12.90
2019-04-03T21:25:55.051Z,13.10
2019-04-03T21:28:25.001Z,12.90
2019-04-03T21:30:55.535Z,13.40
2019-04-03T21:33:25.454Z,13.70
2019-04-03T21:35:55.221Z,13.80
2019-04-03T21:38:25.165Z,13.50
2019-04-03T21:40:55.965Z,13.10
2019-04-03T21:43:27.198Z,13.50
2019-04-03T21:45:57.198Z,12.90
2019-04-03T21:48:27.137Z,13.50
2019-04-03T21:50:56.799Z,13.80
2019-04-03T21:53:27.115Z,13.90
2019-04-03T21:55:56.878Z,13.90
2019-04-03T21:58:27.678Z,14.20
2019-04-03T22:01:20.630Z,14.20
2019-04-03T22:03:51.889Z,14.10
2019-04-03T22:06:21.904Z,14.10
2019-04-03T22:08:51.884Z,14.10
2019-04-03T22:11:21.505Z,14.10
2019-04-03T22:13:51.430Z,13.90
2019-04-03T22:16:21.301Z,13.90
2019-04-03T22:18:52.958Z,14.10
2019-04-03T22:21:23.690Z,12.90
2019-04-03T22:23:53.666Z,13.10
2019-04-03T22:26:23.424Z,13.20
2019-04-03T22:28:53.262Z,13.40
2019-04-03T22:31:23.367Z,12.90
2019-04-03T22:33:53.700Z,12.60
2019-04-03T22:36:23.492Z,13.00
2019-04-03T22:38:53.332Z,12.40
2019-04-03T22:41:23.606Z,12.90
2019-04-03T22:43:53.729Z,12.70
2019-04-03T22:46:24.051Z,13.00
2019-04-03T22:48:53.704Z,13.50
2019-04-03T22:51:23.465Z,13.30
2019-04-03T22:53:53.117Z,13.80
2019-04-03T22:56:23.410Z,13.70
2019-04-03T22:58:53.485Z,13.20
2019-04-03T23:01:23.963Z,12.90
2019-04-03T23:03:54.703Z,13.10
2019-04-03T23:06:25.123Z,13.20
2019-04-03T23:08:55.737Z,13.50
2019-04-03T23:11:36.238Z,13.40
2019-04-03T23:14:06.756Z,13.40
2019-04-03T23:16:37.756Z,13.50
2019-04-03T23:19:08.034Z,13.40
2019-04-03T23:21:37.669Z,13.70
2019-04-03T23:24:07.409Z,13.80
2019-04-03T23:26:37.020Z,13.50
2019-04-03T23:29:07.905Z,13.90
2019-04-03T23:31:40.523Z,13.90
2019-04-03T23:34:10.371Z,13.80
2019-04-03T23:36:40.008Z,14.00
2019-04-03T23:39:10.579Z,14.10
2019-04-03T23:41:41.426Z,13.90
2019-04-03T23:44:11.635Z,14.00
2019-04-03T23:46:45.390Z,13.90
2019-04-03T23:49:14.720Z,13.60
2019-04-03T23:51:45.829Z,13.60
2019-04-03T23:54:17.369Z,13.50
2019-04-03T23:56:46.987Z,13.70
2019-04-03T23:59:16.680Z,13.90
